Time;durP1;ratioP1;P1;durP2;ratioP2;P2;SDS_P1;SDS_P2;PMS_P1;PMS_P2;Temp;Humidity;BMP_temperature;BMP_pressure;BME280_temperature;BME280_humidity;BME280_pressure;Samples;Min_cycle;Max_cycle;Signal;HPM_P1;HPM_P2
2022/09/12 00:01:38;;;;;;;13.20;8.27;;;;;;;-142.57;100.00;68379.81;5012037;28;20064;-73
2022/09/12 00:04:03;;;;;;;13.18;7.88;;;;;;;-142.57;100.00;68379.81;5013529;28;20901;-73
2022/09/12 00:06:32;;;;;;;9.45;7.32;;;;;;;-142.57;100.00;68379.81;5043375;28;20078;-72
2022/09/12 00:08:59;;;;;;;8.70;7.75;;;;;;;-142.57;100.00;68379.81;5048095;28;20479;-73
2022/09/12 00:11:25;;;;;;;12.48;8.75;;;;;;;-142.57;100.00;68379.81;5049364;28;20029;-73
2022/09/12 00:13:55;;;;;;;11.40;7.85;;;;;;;-142.57;100.00;68379.81;5035288;28;20070;-72
2022/09/12 00:16:23;;;;;;;11.25;7.63;;;;;;;-142.57;100.00;68379.81;5048137;28;20033;-73
2022/09/12 00:18:49;;;;;;;12.15;7.45;;;;;;;-142.57;100.00;68379.81;5047388;28;20043;-73
2022/09/12 00:21:16;;;;;;;10.57;8.32;;;;;;;-142.57;100.00;68379.81;5046534;28;20442;-73
2022/09/12 00:23:42;;;;;;;12.52;8.02;;;;;;;-142.57;100.00;68379.81;5046950;28;20040;-73
2022/09/12 00:26:08;;;;;;;15.35;8.15;;;;;;;-142.57;100.00;68379.81;5049071;28;20061;-74
2022/09/12 00:28:35;;;;;;;10.10;8.73;;;;;;;-142.57;100.00;68379.81;5049313;28;20078;-73
2022/09/12 00:31:06;;;;;;;12.25;8.75;;;;;;;-142.57;100.00;68379.81;5050659;28;20029;-73
2022/09/12 00:33:32;;;;;;;19.48;9.15;;;;;;;-142.57;100.00;68379.81;5050909;28;20029;-73
2022/09/12 00:35:57;;;;;;;10.48;8.57;;;;;;;-142.57;100.00;68379.81;5052999;28;20430;-73
2022/09/12 00:38:23;;;;;;;10.00;8.95;;;;;;;-142.57;100.00;68379.81;5052383;28;20079;-73
2022/09/12 00:40:48;;;;;;;11.25;9.75;;;;;;;-142.57;100.00;68379.81;5056999;28;20044;-73
2022/09/12 00:43:34;;;;;;;13.55;8.55;;;;;;;-142.57;100.00;68379.81;5052744;28;20132;-73
2022/09/12 00:46:03;;;;;;;13.32;8.77;;;;;;;-142.57;100.00;68379.81;5052180;28;20049;-73
2022/09/12 00:48:33;;;;;;;15.00;10.45;;;;;;;-142.57;100.00;68379.81;5046800;28;20100;-73
2022/09/12 00:50:59;;;;;;;13.00;10.13;;;;;;;-142.57;100.00;68379.81;5031705;28;20041;-74
2022/09/12 00:53:24;;;;;;;18.17;9.55;;;;;;;-142.57;100.00;68379.81;5052778;28;20155;-73
2022/09/12 00:55:51;;;;;;;12.65;8.73;;;;;;;-142.57;100.00;68379.81;5055172;28;20032;-73
2022/09/12 00:58:41;;;;;;;12.68;9.02;;;;;;;-142.57;100.00;68379.81;5053205;28;20475;-73
2022/09/12 01:01:06;;;;;;;13.52;9.05;;;;;;;-142.57;100.00;68379.81;5046417;28;20040;-74
2022/09/12 01:03:32;;;;;;;10.38;8.90;;;;;;;-142.57;100.00;68379.81;5053491;28;20025;-74
2022/09/12 01:06:03;;;;;;;12.23;9.10;;;;;;;-142.57;100.00;68379.81;5051541;28;20155;-73
2022/09/12 01:08:28;;;;;;;16.90;9.85;;;;;;;-142.57;100.00;68379.81;5047996;28;20124;-74
2022/09/12 01:10:55;;;;;;;12.80;8.90;;;;;;;-142.57;100.00;68379.81;5053351;28;20179;-74
2022/09/12 01:13:21;;;;;;;10.23;8.57;;;;;;;-142.57;100.00;68379.81;5053338;28;20024;-74
2022/09/12 01:15:46;;;;;;;11.27;9.05;;;;;;;-142.57;100.00;68379.81;5051584;28;20464;-74
2022/09/12 01:18:36;;;;;;;12.90;9.68;;;;;;;-142.57;100.00;68379.81;5050567;28;20029;-73
2022/09/12 01:21:10;;;;;;;11.00;9.02;;;;;;;-142.57;100.00;68379.81;5052634;28;20032;-73
2022/09/12 01:23:38;;;;;;;10.68;9.10;;;;;;;-142.57;100.00;68379.81;5071399;28;20414;-73
2022/09/12 01:26:39;;;;;;;12.88;10.82;;;;;;;-142.57;100.00;68379.81;5057493;28;20031;-74
2022/09/12 01:29:18;;;;;;;12.77;10.02;;;;;;;-142.57;100.00;68379.81;5062817;28;20036;-73
2022/09/12 01:31:53;;;;;;;15.10;11.15;;;;;;;-142.57;100.00;68379.81;5052370;28;20029;-73
2022/09/12 01:35:15;;;;;;;16.13;10.48;;;;;;;-142.57;100.00;68379.81;5050551;28;20025;-73
2022/09/12 01:37:53;;;;;;;16.98;11.35;;;;;;;-142.57;100.00;68379.81;5037390;28;20044;-74
2022/09/12 01:40:39;;;;;;;18.45;11.82;;;;;;;-142.57;100.00;68379.81;5033396;28;20025;-74
2022/09/12 01:43:07;;;;;;;15.25;10.93;;;;;;;-142.57;100.00;68379.81;5051504;28;20034;-73
2022/09/12 01:45:41;;;;;;;13.25;11.25;;;;;;;-142.57;100.00;68379.81;5050652;28;20107;-73
2022/09/12 01:48:19;;;;;;;12.73;11.15;;;;;;;-142.57;100.00;68379.81;5050615;28;20083;-73
2022/09/12 01:51:13;;;;;;;13.88;11.07;;;;;;;-142.57;100.00;68379.81;5038863;28;20556;-73
2022/09/12 01:53:43;;;;;;;20.45;11.70;;;;;;;-142.57;100.00;68379.81;5051038;28;20071;-73
2022/09/12 01:56:13;;;;;;;13.02;11.45;;;;;;;-142.57;100.00;68379.81;5047757;28;20029;-73
2022/09/12 01:58:44;;;;;;;13.45;11.43;;;;;;;-142.57;100.00;68379.81;5083181;28;20021;-74
2022/09/12 02:01:20;;;;;;;14.23;11.10;;;;;;;-142.57;100.00;68379.81;5047611;28;20051;-74
2022/09/12 02:03:50;;;;;;;14.57;11.82;;;;;;;-142.57;100.00;68379.81;5049742;28;20029;-73
2022/09/12 02:06:19;;;;;;;12.60;10.32;;;;;;;-142.57;100.00;68379.81;5083106;28;20044;-73
2022/09/12 02:08:52;;;;;;;14.18;11.38;;;;;;;-142.57;100.00;68379.81;5048092;28;20059;-73
2022/09/12 02:11:19;;;;;;;11.13;9.75;;;;;;;-142.57;100.00;68379.81;5051472;28;20391;-73
2022/09/12 02:14:22;;;;;;;11.60;10.32;;;;;;;-142.57;100.00;68379.81;5066353;28;20075;-73
2022/09/12 02:16:54;;;;;;;10.43;9.40;;;;;;;-142.57;100.00;68379.81;5051293;28;20044;-73
2022/09/12 02:19:23;;;;;;;10.90;9.50;;;;;;;-142.57;100.00;68379.81;5047463;28;20064;-74
2022/09/12 02:21:57;;;;;;;18.05;10.10;;;;;;;-142.57;100.00;68379.81;5063861;28;20129;-74
2022/09/12 02:24:24;;;;;;;;;;;;;;;-142.57;100.00;68379.81;5051508;28;20586;-73
2022/09/12 02:26:54;;;;;;;11.35;10.15;;;;;;;-142.57;100.00;68379.81;5084026;28;19912;-74
2022/09/12 02:29:19;;;;;;;12.30;11.00;;;;;;;-142.57;100.00;68379.81;5050660;28;20483;-73
2022/09/12 02:31:57;;;;;;;12.13;10.20;;;;;;;-142.57;100.00;68379.81;5083415;28;20029;-73
2022/09/12 02:34:31;;;;;;;13.15;11.48;;;;;;;-142.57;100.00;68379.81;5033152;28;20098;-73
2022/09/12 02:37:12;;;;;;;16.00;11.50;;;;;;;-142.57;100.00;68379.81;5046744;28;20844;-73
2022/09/12 02:39:37;;;;;;;12.65;11.35;;;;;;;-142.57;100.00;68379.81;5049801;28;20033;-74
2022/09/12 02:42:03;;;;;;;12.35;10.52;;;;;;;-142.57;100.00;68379.81;5050221;28;20442;-73
2022/09/12 02:44:29;;;;;;;14.70;11.70;;;;;;;-142.57;100.00;68379.81;5049955;28;20025;-73
2022/09/12 02:46:59;;;;;;;12.93;11.45;;;;;;;-142.57;100.00;68379.81;5083114;28;20361;-73
2022/09/12 02:49:25;;;;;;;12.05;10.85;;;;;;;-142.57;100.00;68379.81;5049124;28;20116;-73
2022/09/12 02:51:50;;;;;;;14.82;12.60;;;;;;;-142.57;100.00;68379.81;5051145;28;20135;-73
2022/09/12 02:54:16;;;;;;;13.52;12.18;;;;;;;-142.57;100.00;68379.81;5048711;28;20087;-73
2022/09/12 02:56:43;;;;;;;14.57;12.05;;;;;;;-142.57;100.00;68379.81;5062942;28;20029;-73
2022/09/12 02:59:12;;;;;;;15.15;11.48;;;;;;;-142.57;100.00;68379.81;5049067;28;20033;-73
2022/09/12 03:02:15;;;;;;;14.35;11.63;;;;;;;-142.57;100.00;68379.81;5049401;28;20040;-73
2022/09/12 03:04:56;;;;;;;13.90;11.75;;;;;;;-142.57;100.00;68379.81;5049868;28;20040;-72
2022/09/12 03:07:27;;;;;;;15.55;13.43;;;;;;;-142.57;100.00;68379.81;5050102;28;20029;-72
2022/09/12 03:10:06;;;;;;;18.33;12.82;;;;;;;-142.57;100.00;68379.81;5060288;28;20047;-72
2022/09/12 03:13:03;;;;;;;20.60;11.38;;;;;;;-142.57;100.00;68379.81;5062920;28;20028;-72
2022/09/12 03:15:47;;;;;;;13.85;11.70;;;;;;;-142.57;100.00;68379.81;5051016;28;20029;-72
2022/09/12 03:18:42;;;;;;;14.80;12.93;;;;;;;-142.57;100.00;68379.81;5037519;28;20031;-73
2022/09/12 03:21:25;;;;;;;19.83;12.93;;;;;;;-142.57;100.00;68379.81;5046693;28;20065;-72
2022/09/12 03:24:20;;;;;;;24.30;14.50;;;;;;;-142.57;100.00;68379.81;5048734;28;20086;-73
2022/09/12 03:27:15;;;;;;;18.10;13.18;;;;;;;-142.57;100.00;68379.81;5045195;28;20032;-72
2022/09/12 03:29:42;;;;;;;15.07;13.30;;;;;;;-142.57;100.00;68379.81;5062850;28;20119;-72
2022/09/12 03:32:07;;;;;;;20.33;14.00;;;;;;;-142.57;100.00;68379.81;5032673;28;20039;-73
2022/09/12 03:34:33;;;;;;;18.60;14.07;;;;;;;-142.57;100.00;68379.81;5025756;28;20819;-73
2022/09/12 03:36:58;;;;;;;15.10;12.93;;;;;;;-142.57;100.00;68379.81;5013926;28;20186;-73
2022/09/12 03:39:25;;;;;;;19.88;15.02;;;;;;;-142.57;100.00;68379.81;5026946;28;20860;-73
2022/09/12 03:41:51;;;;;;;17.15;13.63;;;;;;;-142.57;100.00;68379.81;5021795;28;20035;-73
2022/09/12 03:44:17;;;;;;;18.92;14.60;;;;;;;-142.57;100.00;68379.81;5021895;28;20218;-73
2022/09/12 03:46:42;;;;;;;17.52;15.05;;;;;;;-142.57;100.00;68379.81;5006937;28;20750;-72
2022/09/12 03:49:07;;;;;;;17.45;15.05;;;;;;;-142.57;100.00;68379.81;5003724;28;20087;-75
2022/09/12 03:51:33;;;;;;;18.73;14.40;;;;;;;-142.57;100.00;68379.81;5014109;28;20951;-73
2022/09/12 03:53:58;;;;;;;18.92;15.07;;;;;;;-142.57;100.00;68379.81;5019230;28;20055;-72
2022/09/12 03:56:24;;;;;;;18.27;14.52;;;;;;;-142.57;100.00;68379.81;5020316;28;20017;-72
2022/09/12 03:58:49;;;;;;;18.23;15.95;;;;;;;-142.57;100.00;68379.81;5028993;28;20861;-73
2022/09/12 04:01:17;;;;;;;18.30;14.25;;;;;;;-142.57;100.00;68379.81;5026125;28;20029;-72
2022/09/12 04:03:44;;;;;;;20.25;16.73;;;;;;;-142.57;100.00;68379.81;5016998;28;20136;-72
2022/09/12 04:06:11;;;;;;;20.63;16.33;;;;;;;-142.57;100.00;68379.81;5026238;28;20105;-72
2022/09/12 04:08:37;;;;;;;17.92;16.00;;;;;;;-142.57;100.00;68379.81;5018302;28;20029;-72
2022/09/12 04:11:08;;;;;;;24.05;16.40;;;;;;;-142.57;100.00;68379.81;5028261;28;20071;-72
2022/09/12 04:13:34;;;;;;;19.25;17.00;;;;;;;-142.57;100.00;68379.81;5019449;28;20063;-72
2022/09/12 04:16:00;;;;;;;18.23;16.30;;;;;;;-142.57;100.00;68379.81;5003755;28;20139;-74
2022/09/12 04:18:26;;;;;;;25.10;17.83;;;;;;;-142.57;100.00;68379.81;5007930;28;20028;-73
2022/09/12 04:20:52;;;;;;;21.80;17.95;;;;;;;-142.57;100.00;68379.81;5022551;28;20147;-73
2022/09/12 04:23:17;;;;;;;24.52;17.27;;;;;;;-142.57;100.00;68379.81;5016209;28;20037;-73
2022/09/12 04:25:43;;;;;;;16.45;14.68;;;;;;;-142.57;100.00;68379.81;5024728;28;20021;-71
2022/09/12 04:28:09;;;;;;;15.25;13.65;;;;;;;-142.57;100.00;68379.81;5009777;28;20479;-74
2022/09/12 04:30:35;;;;;;;20.33;15.70;;;;;;;-142.57;100.00;68379.81;5046257;28;20075;-73
2022/09/12 04:33:00;;;;;;;17.15;14.90;;;;;;;-142.57;100.00;68379.81;5049528;28;20507;-73
2022/09/12 04:35:26;;;;;;;21.08;15.23;;;;;;;-142.57;100.00;68379.81;5044968;28;20029;-73
2022/09/12 04:37:52;;;;;;;18.75;15.85;;;;;;;-142.57;100.00;68379.81;5048374;28;20055;-73
2022/09/12 04:40:17;;;;;;;20.02;16.35;;;;;;;-142.57;100.00;68379.81;5081628;28;20028;-74
2022/09/12 04:42:43;;;;;;;23.27;16.52;;;;;;;-142.57;100.00;68379.81;5052789;28;20029;-73
2022/09/12 04:45:09;;;;;;;16.35;13.73;;;;;;;-142.57;100.00;68379.81;5081107;28;20599;-73
2022/09/12 04:47:34;;;;;;;19.98;14.90;;;;;;;-142.57;100.00;68379.81;5081246;28;20060;-73
2022/09/12 04:49:59;;;;;;;20.00;16.95;;;;;;;-142.57;100.00;68379.81;5041800;28;20063;-73
2022/09/12 04:52:25;;;;;;;18.38;16.30;;;;;;;-142.57;100.00;68379.81;5067391;28;20032;-73
2022/09/12 04:54:52;;;;;;;21.48;16.90;;;;;;;-142.57;100.00;68379.81;5048436;28;20106;-73
2022/09/12 04:57:17;;;;;;;22.30;17.08;;;;;;;-142.57;100.00;68379.81;5032079;28;20431;-73
2022/09/12 04:59:42;;;;;;;26.17;19.25;;;;;;;-142.57;100.00;68379.81;5051215;28;20094;-73
2022/09/12 05:02:08;;;;;;;21.95;19.50;;;;;;;-142.57;100.00;68379.81;5048180;28;20115;-73
2022/09/12 05:04:33;;;;;;;19.08;16.92;;;;;;;-142.57;100.00;68379.81;5048614;28;20502;-73
2022/09/12 05:06:59;;;;;;;22.42;19.58;;;;;;;-142.57;100.00;68379.81;5059511;28;20028;-73
2022/09/12 05:09:24;;;;;;;23.50;21.00;;;;;;;-142.57;100.00;68379.81;5049085;28;20025;-73
2022/09/12 05:11:49;;;;;;;26.05;21.45;;;;;;;-142.57;100.00;68379.81;5047792;28;20025;-73
2022/09/12 05:14:15;;;;;;;26.05;21.42;;;;;;;-142.57;100.00;68379.81;5049612;28;20065;-73
2022/09/12 05:16:40;;;;;;;25.77;21.67;;;;;;;-142.57;100.00;68379.81;5049658;28;20028;-73
2022/09/12 05:19:06;;;;;;;24.25;21.63;;;;;;;-142.57;100.00;68379.81;5051593;28;20131;-73
2022/09/12 05:21:31;;;;;;;28.73;21.55;;;;;;;-142.57;100.00;68379.81;5049531;28;20482;-76
2022/09/12 05:24:00;;;;;;;26.10;21.63;;;;;;;-142.57;100.00;68379.81;5029085;28;20637;-75
2022/09/12 05:26:26;;;;;;;26.02;20.98;;;;;;;-142.57;100.00;68379.81;5049516;28;20429;-73
2022/09/12 05:28:52;;;;;;;27.17;21.38;;;;;;;-142.57;100.00;68379.81;5045547;28;20025;-73
2022/09/12 05:31:20;;;;;;;28.40;20.85;;;;;;;-142.57;100.00;68379.81;5082317;28;20543;-73
2022/09/12 05:33:47;;;;;;;20.92;18.73;;;;;;;-142.57;100.00;68379.81;5045161;28;20395;-73
2022/09/12 05:36:18;;;;;;;22.55;19.30;;;;;;;-142.57;100.00;68379.81;5045808;28;20028;-74
2022/09/12 05:38:44;;;;;;;22.42;19.00;;;;;;;-142.57;100.00;68379.81;5049276;28;20776;-73
2022/09/12 05:41:19;;;;;;;25.90;21.27;;;;;;;-142.57;100.00;68379.81;5050537;28;20040;-73
2022/09/12 05:43:45;;;;;;;25.98;21.35;;;;;;;-142.57;100.00;68379.81;5065971;28;20707;-73
2022/09/12 05:46:14;;;;;;;25.95;21.45;;;;;;;-142.57;100.00;68379.81;5064433;28;20032;-72
2022/09/12 05:48:41;;;;;;;30.08;23.08;;;;;;;-142.57;100.00;68379.81;5050709;28;20044;-73
2022/09/12 05:51:19;;;;;;;27.63;22.45;;;;;;;-142.57;100.00;68379.81;5063793;28;20032;-73
2022/09/12 05:53:46;;;;;;;28.70;25.67;;;;;;;-142.57;100.00;68379.81;5044139;28;20055;-73
2022/09/12 05:56:14;;;;;;;31.40;27.45;;;;;;;-142.57;100.00;68379.81;5046856;28;20585;-72
2022/09/12 05:58:41;;;;;;;29.52;24.00;;;;;;;-142.57;100.00;68379.81;5063972;28;20024;-72
2022/09/12 06:01:11;;;;;;;32.95;25.67;;;;;;;-142.57;100.00;68379.81;5047513;28;20028;-72
2022/09/12 06:03:45;;;;;;;26.15;23.05;;;;;;;-142.57;100.00;68379.81;5048804;28;20032;-72
2022/09/12 06:06:12;;;;;;;27.75;24.50;;;;;;;-142.57;100.00;68379.81;5052446;28;20032;-72
2022/09/12 06:08:39;;;;;;;27.67;24.85;;;;;;;-142.57;100.00;68379.81;5043248;28;20895;-72
2022/09/12 06:11:05;;;;;;;28.92;24.35;;;;;;;-142.57;100.00;68379.81;5034394;28;20479;-72
2022/09/12 06:13:39;;;;;;;26.52;23.73;;;;;;;-142.57;100.00;68379.81;5068153;28;20032;-72
2022/09/12 06:16:31;;;;;;;30.75;24.63;;;;;;;-142.57;100.00;68379.81;5063290;28;20024;-72
2022/09/12 06:18:58;;;;;;;29.17;24.63;;;;;;;-142.57;100.00;68379.81;5061057;28;20072;-72
2022/09/12 06:21:25;;;;;;;27.77;24.00;;;;;;;-142.57;100.00;68379.81;5059408;28;20746;-72
2022/09/12 06:23:52;;;;;;;27.35;24.30;;;;;;;-142.57;100.00;68379.81;5065222;28;20028;-72
2022/09/12 06:26:22;;;;;;;28.75;25.60;;;;;;;-142.57;100.00;68379.81;5063960;28;20052;-73
2022/09/12 06:28:47;;;;;;;29.73;26.55;;;;;;;-142.57;100.00;68379.81;5060402;28;20028;-72
2022/09/12 06:31:16;;;;;;;32.53;26.20;;;;;;;-142.57;100.00;68379.81;5055932;28;20376;-73
2022/09/12 06:33:44;;;;;;;36.40;27.73;;;;;;;-142.57;100.00;68379.81;5051298;28;20040;-73
2022/09/12 06:36:10;;;;;;;31.60;28.10;;;;;;;-142.57;100.00;68379.81;5082578;28;20737;-72
2022/09/12 06:38:37;;;;;;;33.42;26.23;;;;;;;-142.57;100.00;68379.81;5052372;28;21512;-73
2022/09/12 06:41:10;;;;;;;30.90;26.58;;;;;;;-142.57;100.00;68379.81;5051528;28;20051;-71
2022/09/12 06:43:36;;;;;;;32.50;26.20;;;;;;;-142.57;100.00;68379.81;5047578;28;20036;-71
2022/09/12 06:46:02;;;;;;;33.55;25.90;;;;;;;-142.57;100.00;68379.81;5040239;28;20028;-72
2022/09/12 06:48:28;;;;;;;34.85;24.80;;;;;;;-142.57;100.00;68379.81;5064435;28;20111;-73
2022/09/12 06:51:06;;;;;;;32.03;26.15;;;;;;;-142.57;100.00;68379.81;5064954;28;20026;-71
2022/09/12 06:53:32;;;;;;;31.08;26.13;;;;;;;-142.57;100.00;68379.81;5048192;28;20033;-73
2022/09/12 06:56:18;;;;;;;39.50;26.23;;;;;;;-142.57;100.00;68379.81;5050534;28;20025;-73
2022/09/12 06:58:45;;;;;;;35.38;26.33;;;;;;;-142.57;100.00;68379.81;5051835;28;20116;-73
2022/09/12 07:01:28;;;;;;;27.77;24.80;;;;;;;-142.57;100.00;68379.81;5049476;28;20047;-73
2022/09/12 07:03:58;;;;;;;32.35;26.50;;;;;;;-142.57;100.00;68379.81;5039411;28;20479;-73
2022/09/12 07:06:30;;;;;;;30.45;24.17;;;;;;;-142.57;100.00;68379.81;5073223;28;20491;-73
2022/09/12 07:09:00;;;;;;;31.55;25.38;;;;;;;-142.57;100.00;68379.81;5045544;28;20387;-73
2022/09/12 07:11:30;;;;;;;26.95;23.58;;;;;;;-142.57;100.00;68379.81;5048469;28;20036;-73
2022/09/12 07:13:57;;;;;;;27.27;24.45;;;;;;;-142.57;100.00;68379.81;5051338;28;20021;-73
2022/09/12 07:16:23;;;;;;;26.05;23.35;;;;;;;-142.57;100.00;68379.81;5050966;28;20032;-73
2022/09/12 07:18:56;;;;;;;31.52;24.02;;;;;;;-142.57;100.00;68379.81;5050036;28;20029;-73
2022/09/12 07:21:22;;;;;;;30.13;26.92;;;;;;;-142.57;100.00;68379.81;5048726;28;20095;-73
2022/09/12 07:23:48;;;;;;;31.55;26.88;;;;;;;-142.57;100.00;68379.81;5051219;28;20432;-73
2022/09/12 07:26:14;;;;;;;31.38;25.48;;;;;;;-142.57;100.00;68379.81;5051331;28;20025;-73
2022/09/12 07:28:40;;;;;;;33.03;26.85;;;;;;;-142.57;100.00;68379.81;5049852;28;20051;-73
2022/09/12 07:31:08;;;;;;;30.65;25.98;;;;;;;-142.57;100.00;68379.81;5049933;28;20033;-73
2022/09/12 07:33:33;;;;;;;34.53;27.38;;;;;;;-142.57;100.00;68379.81;5056200;28;20033;-73
2022/09/12 07:36:04;;;;;;;30.15;26.48;;;;;;;-142.57;100.00;68379.81;5046851;28;20553;-73
2022/09/12 07:38:29;;;;;;;34.05;28.80;;;;;;;-142.57;100.00;68379.81;5048861;28;20116;-73
2022/09/12 07:40:55;;;;;;;30.33;27.23;;;;;;;-142.57;100.00;68379.81;5049757;28;20143;-73
2022/09/12 07:43:21;;;;;;;31.50;26.92;;;;;;;-142.57;100.00;68379.81;5048931;28;20021;-73
2022/09/12 07:45:47;;;;;;;32.95;28.25;;;;;;;-142.57;100.00;68379.81;5048629;28;20033;-73
2022/09/12 07:48:12;;;;;;;31.05;27.27;;;;;;;-142.57;100.00;68379.81;5036491;28;20028;-74
2022/09/12 07:50:38;;;;;;;30.15;26.60;;;;;;;-142.57;100.00;68379.81;5049833;28;20036;-73
2022/09/12 07:53:04;;;;;;;28.73;25.73;;;;;;;-142.57;100.00;68379.81;5045731;28;20029;-73
2022/09/12 07:55:29;;;;;;;32.55;28.20;;;;;;;-142.57;100.00;68379.81;5047994;28;20136;-73
2022/09/12 07:57:55;;;;;;;34.70;26.33;;;;;;;-142.57;100.00;68379.81;5050174;28;20462;-73
2022/09/12 08:00:21;;;;;;;30.42;27.15;;;;;;;-142.57;100.00;68379.81;5049438;28;20040;-74
2022/09/12 08:02:52;;;;;;;27.85;24.88;;;;;;;-142.57;100.00;68379.81;5049751;28;20092;-72
2022/09/12 08:05:19;;;;;;;29.83;26.65;;;;;;;-142.57;100.00;68379.81;5049743;28;20025;-71
2022/09/12 08:07:45;;;;;;;33.58;28.13;;;;;;;-142.57;100.00;68379.81;5048690;28;20039;-73
2022/09/12 08:10:10;;;;;;;29.35;23.48;;;;;;;-142.57;100.00;68379.81;5031655;28;20037;-73
2022/09/12 08:12:35;;;;;;;33.85;25.77;;;;;;;-142.57;100.00;68379.81;5049625;28;20025;-73
2022/09/12 08:15:01;;;;;;;28.73;24.30;;;;;;;-142.57;100.00;68379.81;5036627;28;20036;-73
2022/09/12 08:17:27;;;;;;;27.15;23.30;;;;;;;-142.57;100.00;68379.81;5050410;28;20082;-73
2022/09/12 08:19:53;;;;;;;26.13;23.42;;;;;;;-142.57;100.00;68379.81;5050379;28;20079;-73
2022/09/12 08:22:20;;;;;;;31.67;22.40;;;;;;;-142.57;100.00;68379.81;5048565;28;20526;-73
2022/09/12 08:24:46;;;;;;;21.52;19.33;;;;;;;-142.57;100.00;68379.81;5047014;28;20384;-73
2022/09/12 08:27:11;;;;;;;18.65;16.70;;;;;;;-142.57;100.00;68379.81;5034034;28;20041;-73
2022/09/12 08:29:37;;;;;;;18.48;16.42;;;;;;;-142.57;100.00;68379.81;5065948;28;20032;-73
2022/09/12 08:32:02;;;;;;;18.98;16.02;;;;;;;-142.57;100.00;68379.81;5064203;28;20029;-73
2022/09/12 08:34:28;;;;;;;14.13;12.65;;;;;;;-142.57;100.00;68379.81;5066690;28;20032;-73
2022/09/12 08:36:53;;;;;;;16.05;12.73;;;;;;;-142.57;100.00;68379.81;5055246;28;20035;-73
2022/09/12 08:39:19;;;;;;;13.43;12.18;;;;;;;-142.57;100.00;68379.81;5067633;28;20097;-74
2022/09/12 08:41:50;;;;;;;12.85;11.45;;;;;;;-142.57;100.00;68379.81;5052614;28;20028;-73
2022/09/12 08:44:36;;;;;;;13.35;10.48;;;;;;;-142.57;100.00;68379.81;5049540;28;20709;-73
2022/09/12 08:47:20;;;;;;;13.73;9.95;;;;;;;-142.57;100.00;68379.81;5050702;28;20039;-74
2022/09/12 08:50:07;;;;;;;11.65;9.73;;;;;;;-142.57;100.00;68379.81;5048580;28;20036;-74
2022/09/12 08:52:53;;;;;;;10.82;9.70;;;;;;;-142.57;100.00;68379.81;5053359;28;20096;-73
2022/09/12 08:55:26;;;;;;;9.55;8.20;;;;;;;-142.57;100.00;68379.81;5053120;28;20028;-73
2022/09/12 08:57:52;;;;;;;13.52;9.07;;;;;;;-142.57;100.00;68379.81;5052059;28;20029;-76
2022/09/12 09:00:18;;;;;;;12.68;8.82;;;;;;;-142.57;100.00;68379.81;5047614;28;20090;-73
2022/09/12 09:03:02;;;;;;;9.60;7.93;;;;;;;-142.57;100.00;68379.81;5061246;28;20062;-73
2022/09/12 09:05:50;;;;;;;10.40;8.02;;;;;;;-142.57;100.00;68379.81;5067614;28;20083;-73
2022/09/12 09:08:30;;;;;;;9.00;8.10;;;;;;;-142.57;100.00;68379.81;5058145;28;20111;-73
2022/09/12 09:11:05;;;;;;;9.23;6.88;;;;;;;-142.57;100.00;68379.81;5058779;28;20110;-73
2022/09/12 09:16:39;;;;;;;10.38;7.75;;;;;;;-142.57;100.00;68379.81;5066327;28;20076;-73
2022/09/12 09:19:10;;;;;;;7.63;6.28;;;;;;;-142.57;100.00;68379.81;5068874;28;20024;-71
2022/09/12 09:21:46;;;;;;;9.90;7.95;;;;;;;-142.57;100.00;68379.81;5063808;28;20056;-72
2022/09/12 09:24:15;;;;;;;8.90;6.30;;;;;;;-142.57;100.00;68379.81;5062796;28;20029;-74
2022/09/12 09:26:56;;;;;;;9.38;7.25;;;;;;;-142.57;100.00;68379.81;5064897;28;20036;-73
2022/09/12 09:29:24;;;;;;;8.85;6.72;;;;;;;-142.57;100.00;68379.81;5053859;28;20491;-73
2022/09/12 09:31:56;;;;;;;9.10;6.30;;;;;;;-142.57;100.00;68379.81;5052526;28;20504;-73
2022/09/12 09:34:28;;;;;;;9.18;5.60;;;;;;;-142.57;100.00;68379.81;5019958;28;20132;-73
2022/09/12 09:37:01;;;;;;;11.57;6.90;;;;;;;-142.57;100.00;68379.81;5042730;28;20119;-74
2022/09/12 09:39:59;;;;;;;9.05;5.53;;;;;;;-142.57;100.00;68379.81;5055994;28;20059;-73
2022/09/12 09:42:45;;;;;;;6.15;4.95;;;;;;;-142.57;100.00;68379.81;5051070;28;20400;-73
2022/09/12 09:45:16;;;;;;;5.13;3.60;;;;;;;-142.57;100.00;68379.81;5042156;28;20021;-73
2022/09/12 09:47:48;;;;;;;6.38;4.43;;;;;;;-142.57;100.00;68379.81;5062051;28;20073;-74
2022/09/12 09:50:15;;;;;;;6.28;3.75;;;;;;;-142.57;100.00;68379.81;5053272;28;20115;-72
2022/09/12 09:52:41;;;;;;;5.60;3.60;;;;;;;-142.57;100.00;68379.81;5054956;28;20071;-73
2022/09/12 09:55:16;;;;;;;7.93;3.88;;;;;;;-142.57;100.00;68379.81;5085013;28;20052;-73
2022/09/12 09:57:45;;;;;;;5.55;4.00;;;;;;;-142.57;100.00;68379.81;5050277;28;20037;-73
2022/09/12 10:00:36;;;;;;;6.68;3.95;;;;;;;-142.57;100.00;68379.81;5050105;28;20047;-73
2022/09/12 10:03:13;;;;;;;4.80;3.58;;;;;;;-142.57;100.00;68379.81;5041756;28;20476;-73
2022/09/12 10:05:51;;;;;;;4.35;3.28;;;;;;;-142.57;100.00;68379.81;5049080;28;20029;-73
2022/09/12 10:08:33;;;;;;;8.10;4.63;;;;;;;-142.57;100.00;68379.81;5048733;28;20025;-74
2022/09/12 10:11:14;;;;;;;6.72;3.83;;;;;;;-142.57;100.00;68379.81;4997863;28;20060;-74
2022/09/12 10:13:49;;;;;;;7.18;4.00;;;;;;;-142.57;100.00;68379.81;5021103;28;20043;-74
2022/09/12 10:16:30;;;;;;;6.57;3.40;;;;;;;-142.57;100.00;68379.81;5014922;28;20079;-71
2022/09/12 10:18:57;;;;;;;6.25;3.75;;;;;;;-142.57;100.00;68379.81;5021311;28;20908;-71
2022/09/12 10:21:38;;;;;;;8.40;3.63;;;;;;;-142.57;100.00;68379.81;5044394;28;20104;-71
2022/09/12 10:24:04;;;;;;;4.43;2.90;;;;;;;-142.57;100.00;68379.81;5051406;28;20043;-72
2022/09/12 10:26:35;;;;;;;5.35;4.30;;;;;;;-142.57;100.00;68379.81;5020037;28;20100;-72
2022/09/12 10:29:21;;;;;;;9.43;3.85;;;;;;;-142.57;100.00;68379.81;5027782;28;20052;-71
2022/09/12 10:31:53;;;;;;;9.98;3.58;;;;;;;-142.57;100.00;68379.81;5050131;28;20032;-72
2022/09/12 10:34:24;;;;;;;12.90;3.67;;;;;;;-142.57;100.00;68379.81;5050860;28;20060;-71
2022/09/12 10:36:52;;;;;;;6.57;3.80;;;;;;;-142.57;100.00;68379.81;5050500;28;20167;-72
2022/09/12 10:39:18;;;;;;;5.05;3.05;;;;;;;-142.57;100.00;68379.81;5047198;28;20025;-71
2022/09/12 10:41:44;;;;;;;5.20;3.33;;;;;;;-142.57;100.00;68379.81;5050285;28;20036;-71
2022/09/12 10:44:18;;;;;;;5.03;3.00;;;;;;;-142.57;100.00;68379.81;5050816;28;20048;-72
2022/09/12 10:46:44;;;;;;;;;;;;;;;-142.57;100.00;68379.81;5058363;28;20039;-71
2022/09/12 10:49:23;;;;;;;6.63;3.10;;;;;;;-142.57;100.00;68379.81;5089166;28;19916;-71
2022/09/12 10:51:49;;;;;;;3.80;2.50;;;;;;;-142.57;100.00;68379.81;5058974;28;20086;-71
2022/09/12 10:54:17;;;;;;;6.57;2.90;;;;;;;-142.57;100.00;68379.81;5052687;28;20075;-71
2022/09/12 10:57:07;;;;;;;6.60;2.70;;;;;;;-142.57;100.00;68379.81;5035719;28;20766;-71
2022/09/12 10:59:54;;;;;;;3.72;2.15;;;;;;;-142.57;100.00;68379.81;5063476;28;20063;-72
2022/09/12 11:02:27;;;;;;;4.40;2.28;;;;;;;-142.57;100.00;68379.81;5050996;28;20040;-71
2022/09/12 11:04:58;;;;;;;4.57;2.22;;;;;;;-142.57;100.00;68379.81;5049692;28;20541;-71
2022/09/12 11:07:44;;;;;;;3.00;1.75;;;;;;;-142.57;100.00;68379.81;5050562;28;20036;-71
2022/09/12 11:10:40;;;;;;;4.15;2.25;;;;;;;-142.57;100.00;68379.81;5048621;28;20041;-72
2022/09/12 11:13:14;;;;;;;3.95;2.30;;;;;;;-142.57;100.00;68379.81;5051147;28;20033;-72
2022/09/12 11:16:14;;;;;;;5.40;2.38;;;;;;;-142.57;100.00;68379.81;5050009;28;20033;-72
2022/09/12 11:18:48;;;;;;;4.18;2.15;;;;;;;-142.57;100.00;68379.81;5001121;28;20135;-72
2022/09/12 11:21:27;;;;;;;4.28;2.10;;;;;;;-142.57;100.00;68379.81;5012838;28;21070;-72